sensor_id;sensor_type;location;lat;lon;timestamp;temperature;humidity
44886;DHT22;36669;51.428;21.162;2023-04-15T00:01:06;10.30;99.90
44886;DHT22;36669;51.428;21.162;2023-04-15T00:03:34;10.30;99.90
44886;DHT22;36669;51.428;21.162;2023-04-15T00:06:01;10.30;99.90
44886;DHT22;36669;51.428;21.162;2023-04-15T00:08:29;10.30;99.90
44886;DHT22;36669;51.428;21.162;2023-04-15T00:10:57;10.30;99.90
44886;DHT22;36669;51.428;21.162;2023-04-15T00:13:28;10.30;99.90
44886;DHT22;36669;51.428;21.162;2023-04-15T00:15:54;10.30;99.90
44886;DHT22;36669;51.428;21.162;2023-04-15T00:18:20;10.30;99.90
44886;DHT22;36669;51.428;21.162;2023-04-15T00:20:49;10.20;99.90
44886;DHT22;36669;51.428;21.162;2023-04-15T00:23:15;10.10;99.90
44886;DHT22;36669;51.428;21.162;2023-04-15T00:25:42;10.10;99.90
44886;DHT22;36669;51.428;21.162;2023-04-15T00:28:10;10.10;99.90
44886;DHT22;36669;51.428;21.162;2023-04-15T00:30:38;10.10;99.90
44886;DHT22;36669;51.428;21.162;2023-04-15T00:33:05;10.10;99.90
44886;DHT22;36669;51.428;21.162;2023-04-15T00:35:33;10.10;99.90
44886;DHT22;36669;51.428;21.162;2023-04-15T00:38:24;10.10;99.90
44886;DHT22;36669;51.428;21.162;2023-04-15T00:40:52;10.00;99.90
44886;DHT22;36669;51.428;21.162;2023-04-15T00:43:20;10.00;99.90
44886;DHT22;36669;51.428;21.162;2023-04-15T00:45:47;10.00;99.90
44886;DHT22;36669;51.428;21.162;2023-04-15T00:48:16;10.00;99.90
44886;DHT22;36669;51.428;21.162;2023-04-15T00:50:43;10.00;99.90
44886;DHT22;36669;51.428;21.162;2023-04-15T00:53:12;10.00;99.90
44886;DHT22;36669;51.428;21.162;2023-04-15T00:55:39;10.00;99.90
44886;DHT22;36669;51.428;21.162;2023-04-15T00:58:06;10.00;99.90
44886;DHT22;36669;51.428;21.162;2023-04-15T01:00:35;9.90;99.90
44886;DHT22;36669;51.428;21.162;2023-04-15T01:03:02;9.90;99.90
44886;DHT22;36669;51.428;21.162;2023-04-15T01:05:30;9.90;99.90
44886;DHT22;36669;51.428;21.162;2023-04-15T01:07:57;9.80;99.90
44886;DHT22;36669;51.428;21.162;2023-04-15T01:10:25;9.90;99.90
44886;DHT22;36669;51.428;21.162;2023-04-15T01:12:52;9.80;99.90
44886;DHT22;36669;51.428;21.162;2023-04-15T01:15:19;9.80;99.90
44886;DHT22;36669;51.428;21.162;2023-04-15T01:17:47;9.70;99.90
44886;DHT22;36669;51.428;21.162;2023-04-15T01:20:14;9.70;99.90
44886;DHT22;36669;51.428;21.162;2023-04-15T01:22:42;9.70;99.90
44886;DHT22;36669;51.428;21.162;2023-04-15T01:25:17;9.60;99.90
44886;DHT22;36669;51.428;21.162;2023-04-15T01:27:45;9.60;99.90
44886;DHT22;36669;51.428;21.162;2023-04-15T01:30:14;9.60;99.90
44886;DHT22;36669;51.428;21.162;2023-04-15T01:32:42;9.60;99.90
44886;DHT22;36669;51.428;21.162;2023-04-15T01:35:09;9.50;99.90
44886;DHT22;36669;51.428;21.162;2023-04-15T01:37:37;9.50;99.90
44886;DHT22;36669;51.428;21.162;2023-04-15T01:40:04;9.50;99.90
44886;DHT22;36669;51.428;21.162;2023-04-15T01:42:31;9.50;99.90
44886;DHT22;36669;51.428;21.162;2023-04-15T01:44:59;9.60;99.90
44886;DHT22;36669;51.428;21.162;2023-04-15T01:47:26;9.50;99.90
44886;DHT22;36669;51.428;21.162;2023-04-15T01:49:53;9.50;99.90
44886;DHT22;36669;51.428;21.162;2023-04-15T01:52:20;9.50;99.90
44886;DHT22;36669;51.428;21.162;2023-04-15T01:54:47;9.50;99.90
44886;DHT22;36669;51.428;21.162;2023-04-15T01:57:13;9.50;99.90
44886;DHT22;36669;51.428;21.162;2023-04-15T01:59:41;9.50;99.90
44886;DHT22;36669;51.428;21.162;2023-04-15T02:02:08;9.50;99.90
44886;DHT22;36669;51.428;21.162;2023-04-15T02:04:35;9.50;99.90
44886;DHT22;36669;51.428;21.162;2023-04-15T02:07:00;9.50;99.90
44886;DHT22;36669;51.428;21.162;2023-04-15T02:09:27;9.50;99.90
44886;DHT22;36669;51.428;21.162;2023-04-15T02:11:55;9.50;99.90
44886;DHT22;36669;51.428;21.162;2023-04-15T02:14:22;9.40;99.90
44886;DHT22;36669;51.428;21.162;2023-04-15T02:16:47;9.40;99.90
44886;DHT22;36669;51.428;21.162;2023-04-15T02:19:16;9.40;99.90
44886;DHT22;36669;51.428;21.162;2023-04-15T02:21:43;9.40;99.90
44886;DHT22;36669;51.428;21.162;2023-04-15T02:24:10;9.40;99.90
44886;DHT22;36669;51.428;21.162;2023-04-15T02:26:39;9.40;99.90
44886;DHT22;36669;51.428;21.162;2023-04-15T02:29:06;9.40;99.90
44886;DHT22;36669;51.428;21.162;2023-04-15T02:31:33;9.40;99.90
44886;DHT22;36669;51.428;21.162;2023-04-15T02:34:02;9.30;99.90
44886;DHT22;36669;51.428;21.162;2023-04-15T02:36:31;9.30;99.90
44886;DHT22;36669;51.428;21.162;2023-04-15T02:38:59;9.30;99.90
44886;DHT22;36669;51.428;21.162;2023-04-15T02:41:27;9.30;99.90
44886;DHT22;36669;51.428;21.162;2023-04-15T02:43:56;9.30;99.90
44886;DHT22;36669;51.428;21.162;2023-04-15T02:46:24;9.30;99.90
44886;DHT22;36669;51.428;21.162;2023-04-15T02:48:51;9.30;99.90
44886;DHT22;36669;51.428;21.162;2023-04-15T02:51:23;9.30;99.90
44886;DHT22;36669;51.428;21.162;2023-04-15T02:53:50;9.30;99.90
44886;DHT22;36669;51.428;21.162;2023-04-15T02:56:19;9.30;99.90
44886;DHT22;36669;51.428;21.162;2023-04-15T02:58:47;9.30;99.90
44886;DHT22;36669;51.428;21.162;2023-04-15T03:01:16;9.30;99.90
44886;DHT22;36669;51.428;21.162;2023-04-15T03:03:43;9.30;99.90
44886;DHT22;36669;51.428;21.162;2023-04-15T03:06:09;9.30;99.90
44886;DHT22;36669;51.428;21.162;2023-04-15T03:08:36;9.30;99.90
44886;DHT22;36669;51.428;21.162;2023-04-15T03:11:06;9.30;99.90
44886;DHT22;36669;51.428;21.162;2023-04-15T03:13:34;9.30;99.90
44886;DHT22;36669;51.428;21.162;2023-04-15T03:16:01;9.30;99.90
44886;DHT22;36669;51.428;21.162;2023-04-15T03:18:28;9.30;99.90
44886;DHT22;36669;51.428;21.162;2023-04-15T03:20:55;9.30;99.90
44886;DHT22;36669;51.428;21.162;2023-04-15T03:23:23;9.30;99.90
44886;DHT22;36669;51.428;21.162;2023-04-15T03:25:48;9.30;99.90
44886;DHT22;36669;51.428;21.162;2023-04-15T03:28:15;9.30;99.90
44886;DHT22;36669;51.428;21.162;2023-04-15T03:30:42;9.30;99.90
44886;DHT22;36669;51.428;21.162;2023-04-15T03:33:10;9.30;99.90
44886;DHT22;36669;51.428;21.162;2023-04-15T03:35:36;9.30;99.90
44886;DHT22;36669;51.428;21.162;2023-04-15T03:38:04;9.30;99.90
44886;DHT22;36669;51.428;21.162;2023-04-15T03:40:30;9.30;99.90
44886;DHT22;36669;51.428;21.162;2023-04-15T03:42:59;9.30;99.90
44886;DHT22;36669;51.428;21.162;2023-04-15T03:45:27;9.30;99.90
44886;DHT22;36669;51.428;21.162;2023-04-15T03:47:56;9.30;99.90
44886;DHT22;36669;51.428;21.162;2023-04-15T03:50:24;9.30;99.90
44886;DHT22;36669;51.428;21.162;2023-04-15T03:52:51;9.30;99.90
44886;DHT22;36669;51.428;21.162;2023-04-15T03:55:19;9.30;99.90
44886;DHT22;36669;51.428;21.162;2023-04-15T03:57:46;9.30;99.90
44886;DHT22;36669;51.428;21.162;2023-04-15T04:00:13;9.30;99.90
44886;DHT22;36669;51.428;21.162;2023-04-15T04:02:40;9.30;99.90
44886;DHT22;36669;51.428;21.162;2023-04-15T04:05:13;9.30;99.90
44886;DHT22;36669;51.428;21.162;2023-04-15T04:07:44;9.30;99.90
44886;DHT22;36669;51.428;21.162;2023-04-15T04:10:12;9.30;99.90
44886;DHT22;36669;51.428;21.162;2023-04-15T04:12:40;9.30;99.90
44886;DHT22;36669;51.428;21.162;2023-04-15T04:15:07;9.30;99.90
44886;DHT22;36669;51.428;21.162;2023-04-15T04:17:35;9.30;99.90
44886;DHT22;36669;51.428;21.162;2023-04-15T04:20:03;9.30;99.90
44886;DHT22;36669;51.428;21.162;2023-04-15T04:22:36;9.40;99.90
44886;DHT22;36669;51.428;21.162;2023-04-15T04:25:04;9.30;99.90
44886;DHT22;36669;51.428;21.162;2023-04-15T04:27:31;9.30;99.90
44886;DHT22;36669;51.428;21.162;2023-04-15T04:29:59;9.30;99.90
44886;DHT22;36669;51.428;21.162;2023-04-15T04:32:26;9.30;99.90
44886;DHT22;36669;51.428;21.162;2023-04-15T04:34:54;9.40;99.90
44886;DHT22;36669;51.428;21.162;2023-04-15T04:37:21;9.40;99.90
44886;DHT22;36669;51.428;21.162;2023-04-15T04:39:59;9.40;99.90
44886;DHT22;36669;51.428;21.162;2023-04-15T04:42:27;9.40;99.90
44886;DHT22;36669;51.428;21.162;2023-04-15T04:44:53;9.30;99.90
44886;DHT22;36669;51.428;21.162;2023-04-15T04:47:20;9.40;99.90
44886;DHT22;36669;51.428;21.162;2023-04-15T04:49:47;9.30;99.90
44886;DHT22;36669;51.428;21.162;2023-04-15T04:52:14;9.40;99.90
44886;DHT22;36669;51.428;21.162;2023-04-15T04:54:43;9.30;99.90
44886;DHT22;36669;51.428;21.162;2023-04-15T04:57:11;9.40;99.90
44886;DHT22;36669;51.428;21.162;2023-04-15T04:59:39;9.30;99.90
44886;DHT22;36669;51.428;21.162;2023-04-15T05:02:06;9.40;99.90
44886;DHT22;36669;51.428;21.162;2023-04-15T05:04:33;9.40;99.90
44886;DHT22;36669;51.428;21.162;2023-04-15T05:07:01;9.40;99.90
44886;DHT22;36669;51.428;21.162;2023-04-15T05:09:28;9.40;99.90
44886;DHT22;36669;51.428;21.162;2023-04-15T05:11:56;9.40;99.90
44886;DHT22;36669;51.428;21.162;2023-04-15T05:14:25;9.40;99.90
44886;DHT22;36669;51.428;21.162;2023-04-15T05:16:51;9.40;99.90
44886;DHT22;36669;51.428;21.162;2023-04-15T05:19:17;9.40;99.90
44886;DHT22;36669;51.428;21.162;2023-04-15T05:21:44;9.40;99.90
44886;DHT22;36669;51.428;21.162;2023-04-15T05:24:11;9.40;99.90
44886;DHT22;36669;51.428;21.162;2023-04-15T05:26:38;9.40;99.90
44886;DHT22;36669;51.428;21.162;2023-04-15T05:29:08;9.30;99.90
44886;DHT22;36669;51.428;21.162;2023-04-15T05:31:38;9.40;99.90
44886;DHT22;36669;51.428;21.162;2023-04-15T05:34:07;9.30;99.90
44886;DHT22;36669;51.428;21.162;2023-04-15T05:36:34;9.40;99.90
44886;DHT22;36669;51.428;21.162;2023-04-15T05:39:01;9.40;99.90
44886;DHT22;36669;51.428;21.162;2023-04-15T05:41:28;9.40;99.90
44886;DHT22;36669;51.428;21.162;2023-04-15T05:43:56;9.40;99.90
44886;DHT22;36669;51.428;21.162;2023-04-15T05:46:24;9.40;99.90
44886;DHT22;36669;51.428;21.162;2023-04-15T05:48:51;9.50;99.90
44886;DHT22;36669;51.428;21.162;2023-04-15T05:51:20;9.40;99.90
44886;DHT22;36669;51.428;21.162;2023-04-15T05:53:48;9.40;99.90
44886;DHT22;36669;51.428;21.162;2023-04-15T05:56:14;9.40;99.90
44886;DHT22;36669;51.428;21.162;2023-04-15T05:58:43;9.40;99.90
44886;DHT22;36669;51.428;21.162;2023-04-15T06:01:11;9.40;99.90
44886;DHT22;36669;51.428;21.162;2023-04-15T06:03:38;9.40;99.90
44886;DHT22;36669;51.428;21.162;2023-04-15T06:06:06;9.40;99.90
44886;DHT22;36669;51.428;21.162;2023-04-15T06:08:35;9.40;99.90
44886;DHT22;36669;51.428;21.162;2023-04-15T06:11:02;9.50;99.90
44886;DHT22;36669;51.428;21.162;2023-04-15T06:13:29;9.50;99.90
44886;DHT22;36669;51.428;21.162;2023-04-15T06:15:56;9.50;99.90
44886;DHT22;36669;51.428;21.162;2023-04-15T06:18:24;9.60;99.90
44886;DHT22;36669;51.428;21.162;2023-04-15T06:20:51;9.70;99.90
44886;DHT22;36669;51.428;21.162;2023-04-15T06:23:21;9.70;99.90
44886;DHT22;36669;51.428;21.162;2023-04-15T06:25:48;9.80;99.90
44886;DHT22;36669;51.428;21.162;2023-04-15T06:28:16;9.80;99.90
44886;DHT22;36669;51.428;21.162;2023-04-15T06:30:43;9.80;99.90
44886;DHT22;36669;51.428;21.162;2023-04-15T06:33:11;9.80;99.90
44886;DHT22;36669;51.428;21.162;2023-04-15T06:35:39;9.80;99.90
44886;DHT22;36669;51.428;21.162;2023-04-15T06:38:06;9.80;99.90
44886;DHT22;36669;51.428;21.162;2023-04-15T06:40:34;9.80;99.90
44886;DHT22;36669;51.428;21.162;2023-04-15T06:43:01;9.80;99.90
44886;DHT22;36669;51.428;21.162;2023-04-15T06:45:29;9.80;99.90
44886;DHT22;36669;51.428;21.162;2023-04-15T06:47:57;9.90;99.90
44886;DHT22;36669;51.428;21.162;2023-04-15T06:50:24;9.90;99.90
44886;DHT22;36669;51.428;21.162;2023-04-15T06:52:52;10.10;99.90
44886;DHT22;36669;51.428;21.162;2023-04-15T06:55:18;10.10;99.90
44886;DHT22;36669;51.428;21.162;2023-04-15T06:57:46;10.10;99.90
44886;DHT22;36669;51.428;21.162;2023-04-15T07:00:14;10.20;99.90
44886;DHT22;36669;51.428;21.162;2023-04-15T07:02:43;10.20;99.90
44886;DHT22;36669;51.428;21.162;2023-04-15T07:05:12;10.20;99.90
44886;DHT22;36669;51.428;21.162;2023-04-15T07:07:37;10.40;99.90
44886;DHT22;36669;51.428;21.162;2023-04-15T07:10:06;10.30;99.90
44886;DHT22;36669;51.428;21.162;2023-04-15T07:12:32;10.30;99.90
44886;DHT22;36669;51.428;21.162;2023-04-15T07:15:01;10.20;99.90
44886;DHT22;36669;51.428;21.162;2023-04-15T07:17:28;10.40;99.90
44886;DHT22;36669;51.428;21.162;2023-04-15T07:19:55;10.50;99.90
44886;DHT22;36669;51.428;21.162;2023-04-15T07:22:25;10.50;99.90
44886;DHT22;36669;51.428;21.162;2023-04-15T07:24:53;10.50;99.90
44886;DHT22;36669;51.428;21.162;2023-04-15T07:27:20;10.40;99.90
44886;DHT22;36669;51.428;21.162;2023-04-15T07:29:47;10.50;99.90
44886;DHT22;36669;51.428;21.162;2023-04-15T07:32:19;10.50;99.90
44886;DHT22;36669;51.428;21.162;2023-04-15T07:34:47;10.50;99.90
44886;DHT22;36669;51.428;21.162;2023-04-15T07:37:14;10.50;99.90
44886;DHT22;36669;51.428;21.162;2023-04-15T07:39:41;10.40;99.90
44886;DHT22;36669;51.428;21.162;2023-04-15T07:42:11;10.40;99.90
44886;DHT22;36669;51.428;21.162;2023-04-15T07:44:37;10.40;99.90
44886;DHT22;36669;51.428;21.162;2023-04-15T07:47:05;10.30;99.90
44886;DHT22;36669;51.428;21.162;2023-04-15T07:49:32;10.40;99.90
44886;DHT22;36669;51.428;21.162;2023-04-15T07:51:59;10.50;99.90
44886;DHT22;36669;51.428;21.162;2023-04-15T07:54:25;10.50;99.90
44886;DHT22;36669;51.428;21.162;2023-04-15T07:56:52;10.50;99.90
44886;DHT22;36669;51.428;21.162;2023-04-15T07:59:19;10.50;99.90
44886;DHT22;36669;51.428;21.162;2023-04-15T08:01:46;10.50;99.90
44886;DHT22;36669;51.428;21.162;2023-04-15T08:04:14;10.50;99.90
44886;DHT22;36669;51.428;21.162;2023-04-15T08:06:41;10.50;99.90
44886;DHT22;36669;51.428;21.162;2023-04-15T08:09:09;10.50;99.90
44886;DHT22;36669;51.428;21.162;2023-04-15T08:11:34;10.60;99.90
44886;DHT22;36669;51.428;21.162;2023-04-15T08:14:02;10.60;99.90
44886;DHT22;36669;51.428;21.162;2023-04-15T08:16:31;10.60;99.90
44886;DHT22;36669;51.428;21.162;2023-04-15T08:18:58;10.60;99.90
44886;DHT22;36669;51.428;21.162;2023-04-15T08:21:25;10.60;99.90
44886;DHT22;36669;51.428;21.162;2023-04-15T08:23:54;10.60;99.90
44886;DHT22;36669;51.428;21.162;2023-04-15T08:26:22;10.60;99.90
44886;DHT22;36669;51.428;21.162;2023-04-15T08:28:50;10.60;99.90
44886;DHT22;36669;51.428;21.162;2023-04-15T08:31:21;10.60;99.90
44886;DHT22;36669;51.428;21.162;2023-04-15T08:33:48;10.70;99.90
44886;DHT22;36669;51.428;21.162;2023-04-15T08:36:18;10.70;99.90
44886;DHT22;36669;51.428;21.162;2023-04-15T08:38:45;10.70;99.90
44886;DHT22;36669;51.428;21.162;2023-04-15T08:41:23;10.70;99.90
44886;DHT22;36669;51.428;21.162;2023-04-15T08:44:12;10.70;99.90
44886;DHT22;36669;51.428;21.162;2023-04-15T08:46:40;10.70;99.90
44886;DHT22;36669;51.428;21.162;2023-04-15T08:49:12;10.70;99.90
44886;DHT22;36669;51.428;21.162;2023-04-15T08:51:42;10.60;99.90
44886;DHT22;36669;51.428;21.162;2023-04-15T08:54:15;10.60;99.90
44886;DHT22;36669;51.428;21.162;2023-04-15T08:56:45;10.60;99.90
44886;DHT22;36669;51.428;21.162;2023-04-15T08:59:12;10.60;99.90
44886;DHT22;36669;51.428;21.162;2023-04-15T09:01:39;10.60;99.90
44886;DHT22;36669;51.428;21.162;2023-04-15T09:04:07;10.70;99.90
44886;DHT22;36669;51.428;21.162;2023-04-15T09:06:35;10.80;99.90
44886;DHT22;36669;51.428;21.162;2023-04-15T09:09:04;10.80;99.90
44886;DHT22;36669;51.428;21.162;2023-04-15T09:11:30;10.80;99.90
44886;DHT22;36669;51.428;21.162;2023-04-15T09:14:00;10.80;99.90
44886;DHT22;36669;51.428;21.162;2023-04-15T09:16:28;10.80;99.90
44886;DHT22;36669;51.428;21.162;2023-04-15T09:18:56;10.70;99.90
44886;DHT22;36669;51.428;21.162;2023-04-15T09:21:23;10.80;99.90
44886;DHT22;36669;51.428;21.162;2023-04-15T09:24:00;10.80;99.90
44886;DHT22;36669;51.428;21.162;2023-04-15T09:26:33;10.90;99.90
44886;DHT22;36669;51.428;21.162;2023-04-15T09:29:12;11.00;99.90
44886;DHT22;36669;51.428;21.162;2023-04-15T09:31:43;10.90;99.90
44886;DHT22;36669;51.428;21.162;2023-04-15T09:34:11;10.90;99.90
44886;DHT22;36669;51.428;21.162;2023-04-15T09:36:55;10.90;99.90
44886;DHT22;36669;51.428;21.162;2023-04-15T09:39:22;10.90;99.90
44886;DHT22;36669;51.428;21.162;2023-04-15T09:42:07;10.90;99.90
44886;DHT22;36669;51.428;21.162;2023-04-15T09:44:34;10.90;99.90
44886;DHT22;36669;51.428;21.162;2023-04-15T09:47:01;11.00;99.90
44886;DHT22;36669;51.428;21.162;2023-04-15T09:49:27;11.10;99.90
44886;DHT22;36669;51.428;21.162;2023-04-15T09:52:01;11.10;99.90
44886;DHT22;36669;51.428;21.162;2023-04-15T09:54:33;11.20;99.90
44886;DHT22;36669;51.428;21.162;2023-04-15T09:57:07;11.20;99.90
44886;DHT22;36669;51.428;21.162;2023-04-15T09:59:34;11.30;99.90
44886;DHT22;36669;51.428;21.162;2023-04-15T10:02:15;11.30;99.90
44886;DHT22;36669;51.428;21.162;2023-04-15T10:04:44;11.40;99.90
44886;DHT22;36669;51.428;21.162;2023-04-15T10:07:11;11.40;99.90
44886;DHT22;36669;51.428;21.162;2023-04-15T10:09:55;11.40;99.90
44886;DHT22;36669;51.428;21.162;2023-04-15T10:12:22;11.40;99.90
44886;DHT22;36669;51.428;21.162;2023-04-15T10:15:00;11.40;99.90
44886;DHT22;36669;51.428;21.162;2023-04-15T10:17:31;11.40;99.90
44886;DHT22;36669;51.428;21.162;2023-04-15T10:20:06;11.50;99.90
44886;DHT22;36669;51.428;21.162;2023-04-15T10:22:35;11.50;99.90
44886;DHT22;36669;51.428;21.162;2023-04-15T10:25:03;11.50;99.90
44886;DHT22;36669;51.428;21.162;2023-04-15T10:27:31;11.60;99.90
44886;DHT22;36669;51.428;21.162;2023-04-15T10:30:00;11.70;99.90
44886;DHT22;36669;51.428;21.162;2023-04-15T10:32:28;11.70;99.90
44886;DHT22;36669;51.428;21.162;2023-04-15T10:34:56;11.90;99.90
44886;DHT22;36669;51.428;21.162;2023-04-15T10:37:34;12.00;99.90
44886;DHT22;36669;51.428;21.162;2023-04-15T10:40:25;12.00;99.90
44886;DHT22;36669;51.428;21.162;2023-04-15T10:43:00;11.90;99.90
44886;DHT22;36669;51.428;21.162;2023-04-15T10:45:37;12.00;99.90
44886;DHT22;36669;51.428;21.162;2023-04-15T10:48:06;12.20;99.90
44886;DHT22;36669;51.428;21.162;2023-04-15T10:50:34;12.20;99.90
44886;DHT22;36669;51.428;21.162;2023-04-15T10:53:03;12.20;99.90
44886;DHT22;36669;51.428;21.162;2023-04-15T10:55:32;12.30;99.90
44886;DHT22;36669;51.428;21.162;2023-04-15T10:58:00;12.30;99.90
44886;DHT22;36669;51.428;21.162;2023-04-15T11:00:33;12.70;99.90
44886;DHT22;36669;51.428;21.162;2023-04-15T11:03:11;12.90;99.90
44886;DHT22;36669;51.428;21.162;2023-04-15T11:05:53;13.00;99.90
44886;DHT22;36669;51.428;21.162;2023-04-15T11:08:56;13.20;99.90
44886;DHT22;36669;51.428;21.162;2023-04-15T11:14:39;13.40;99.90
44886;DHT22;36669;51.428;21.162;2023-04-15T11:17:09;13.60;99.90
44886;DHT22;36669;51.428;21.162;2023-04-15T11:19:37;13.80;99.90
44886;DHT22;36669;51.428;21.162;2023-04-15T11:22:13;14.10;99.90
44886;DHT22;36669;51.428;21.162;2023-04-15T11:24:50;14.30;99.90
44886;DHT22;36669;51.428;21.162;2023-04-15T11:27:22;14.30;99.90
44886;DHT22;36669;51.428;21.162;2023-04-15T11:29:50;14.40;99.90
44886;DHT22;36669;51.428;21.162;2023-04-15T11:32:18;14.60;99.90
44886;DHT22;36669;51.428;21.162;2023-04-15T11:34:50;14.60;99.90
44886;DHT22;36669;51.428;21.162;2023-04-15T11:37:26;14.10;99.90
44886;DHT22;36669;51.428;21.162;2023-04-15T11:39:55;14.00;99.90
44886;DHT22;36669;51.428;21.162;2023-04-15T11:42:22;13.70;99.90
44886;DHT22;36669;51.428;21.162;2023-04-15T11:44:49;13.80;99.90
44886;DHT22;36669;51.428;21.162;2023-04-15T11:47:27;13.80;99.90
44886;DHT22;36669;51.428;21.162;2023-04-15T11:49:53;13.80;99.90
44886;DHT22;36669;51.428;21.162;2023-04-15T11:52:21;13.80;99.90
44886;DHT22;36669;51.428;21.162;2023-04-15T11:54:48;13.80;99.90
44886;DHT22;36669;51.428;21.162;2023-04-15T11:57:15;13.90;99.90
44886;DHT22;36669;51.428;21.162;2023-04-15T11:59:42;13.90;99.90
44886;DHT22;36669;51.428;21.162;2023-04-15T12:02:11;13.90;99.90
44886;DHT22;36669;51.428;21.162;2023-04-15T12:04:41;13.90;99.90
44886;DHT22;36669;51.428;21.162;2023-04-15T12:07:08;13.90;99.90
44886;DHT22;36669;51.428;21.162;2023-04-15T12:09:39;14.00;99.90
44886;DHT22;36669;51.428;21.162;2023-04-15T12:12:14;14.10;99.90
44886;DHT22;36669;51.428;21.162;2023-04-15T12:14:44;13.90;99.90
44886;DHT22;36669;51.428;21.162;2023-04-15T12:17:12;13.90;99.90
44886;DHT22;36669;51.428;21.162;2023-04-15T12:19:41;13.90;99.90
44886;DHT22;36669;51.428;21.162;2023-04-15T12:22:16;13.90;99.90
44886;DHT22;36669;51.428;21.162;2023-04-15T12:24:44;14.10;99.90
44886;DHT22;36669;51.428;21.162;2023-04-15T12:27:16;14.10;99.90
44886;DHT22;36669;51.428;21.162;2023-04-15T12:29:45;14.40;99.90
44886;DHT22;36669;51.428;21.162;2023-04-15T12:32:16;14.50;99.90
44886;DHT22;36669;51.428;21.162;2023-04-15T12:34:53;14.70;99.90
44886;DHT22;36669;51.428;21.162;2023-04-15T12:37:21;14.70;99.90
44886;DHT22;36669;51.428;21.162;2023-04-15T12:39:49;14.90;99.90
44886;DHT22;36669;51.428;21.162;2023-04-15T12:42:15;15.00;99.90
44886;DHT22;36669;51.428;21.162;2023-04-15T12:44:43;15.30;99.90
44886;DHT22;36669;51.428;21.162;2023-04-15T12:47:10;15.40;99.90
44886;DHT22;36669;51.428;21.162;2023-04-15T12:49:41;15.30;99.90
44886;DHT22;36669;51.428;21.162;2023-04-15T12:52:08;15.30;99.90
44886;DHT22;36669;51.428;21.162;2023-04-15T12:54:35;15.00;99.90
44886;DHT22;36669;51.428;21.162;2023-04-15T12:57:04;14.80;99.90
44886;DHT22;36669;51.428;21.162;2023-04-15T12:59:31;14.90;99.90
44886;DHT22;36669;51.428;21.162;2023-04-15T13:01:59;14.90;99.90
44886;DHT22;36669;51.428;21.162;2023-04-15T13:04:28;15.10;99.90
44886;DHT22;36669;51.428;21.162;2023-04-15T13:06:57;15.00;99.90
44886;DHT22;36669;51.428;21.162;2023-04-15T13:09:25;15.10;99.90
44886;DHT22;36669;51.428;21.162;2023-04-15T13:11:52;15.00;99.90
44886;DHT22;36669;51.428;21.162;2023-04-15T13:14:20;14.90;99.90
44886;DHT22;36669;51.428;21.162;2023-04-15T13:16:49;15.20;99.90
44886;DHT22;36669;51.428;21.162;2023-04-15T13:19:16;15.10;99.90
44886;DHT22;36669;51.428;21.162;2023-04-15T13:21:41;15.40;99.90
44886;DHT22;36669;51.428;21.162;2023-04-15T13:24:09;15.50;99.90
44886;DHT22;36669;51.428;21.162;2023-04-15T13:26:38;15.50;99.90
44886;DHT22;36669;51.428;21.162;2023-04-15T13:29:05;15.60;99.90
44886;DHT22;36669;51.428;21.162;2023-04-15T13:31:32;15.80;99.90
44886;DHT22;36669;51.428;21.162;2023-04-15T13:33:58;16.00;99.90
44886;DHT22;36669;51.428;21.162;2023-04-15T13:36:27;16.50;99.90
44886;DHT22;36669;51.428;21.162;2023-04-15T13:38:54;16.80;99.90
44886;DHT22;36669;51.428;21.162;2023-04-15T13:41:24;16.70;99.90
44886;DHT22;36669;51.428;21.162;2023-04-15T13:43:52;16.40;99.90
44886;DHT22;36669;51.428;21.162;2023-04-15T13:46:18;16.40;99.90
44886;DHT22;36669;51.428;21.162;2023-04-15T13:48:43;16.30;99.90
44886;DHT22;36669;51.428;21.162;2023-04-15T13:51:12;16.40;99.90
44886;DHT22;36669;51.428;21.162;2023-04-15T13:53:39;16.20;99.90
44886;DHT22;36669;51.428;21.162;2023-04-15T13:56:07;15.90;99.90
44886;DHT22;36669;51.428;21.162;2023-04-15T13:58:35;15.40;99.90
44886;DHT22;36669;51.428;21.162;2023-04-15T14:01:03;15.10;99.90
44886;DHT22;36669;51.428;21.162;2023-04-15T14:03:31;15.00;99.90
44886;DHT22;36669;51.428;21.162;2023-04-15T14:05:58;14.80;99.90
44886;DHT22;36669;51.428;21.162;2023-04-15T14:08:25;14.70;99.90
44886;DHT22;36669;51.428;21.162;2023-04-15T14:10:51;14.50;99.90
44886;DHT22;36669;51.428;21.162;2023-04-15T14:13:21;14.40;99.90
44886;DHT22;36669;51.428;21.162;2023-04-15T14:15:48;14.40;99.90
44886;DHT22;36669;51.428;21.162;2023-04-15T14:18:17;14.40;99.90
44886;DHT22;36669;51.428;21.162;2023-04-15T14:20:43;14.40;99.90
44886;DHT22;36669;51.428;21.162;2023-04-15T14:23:09;14.40;99.90
44886;DHT22;36669;51.428;21.162;2023-04-15T14:25:37;14.40;99.90
44886;DHT22;36669;51.428;21.162;2023-04-15T14:28:07;14.40;99.90
44886;DHT22;36669;51.428;21.162;2023-04-15T14:30:32;14.40;99.90
44886;DHT22;36669;51.428;21.162;2023-04-15T14:32:59;14.30;99.90
44886;DHT22;36669;51.428;21.162;2023-04-15T14:35:28;14.20;99.90
44886;DHT22;36669;51.428;21.162;2023-04-15T14:37:55;14.20;99.90
44886;DHT22;36669;51.428;21.162;2023-04-15T14:40:22;14.00;99.90
44886;DHT22;36669;51.428;21.162;2023-04-15T14:42:50;13.90;99.90
44886;DHT22;36669;51.428;21.162;2023-04-15T14:45:17;13.80;99.90
44886;DHT22;36669;51.428;21.162;2023-04-15T14:47:42;13.80;99.90
44886;DHT22;36669;51.428;21.162;2023-04-15T14:50:13;13.70;99.90
44886;DHT22;36669;51.428;21.162;2023-04-15T14:52:41;13.60;99.90
44886;DHT22;36669;51.428;21.162;2023-04-15T14:55:12;13.60;99.90
44886;DHT22;36669;51.428;21.162;2023-04-15T14:57:41;13.50;99.90
44886;DHT22;36669;51.428;21.162;2023-04-15T15:00:11;13.30;99.90
44886;DHT22;36669;51.428;21.162;2023-04-15T15:02:39;13.30;99.90
44886;DHT22;36669;51.428;21.162;2023-04-15T15:05:08;13.00;99.90
44886;DHT22;36669;51.428;21.162;2023-04-15T15:07:45;12.90;99.90
44886;DHT22;36669;51.428;21.162;2023-04-15T15:10:11;12.50;99.90
44886;DHT22;36669;51.428;21.162;2023-04-15T15:12:40;12.10;99.90
44886;DHT22;36669;51.428;21.162;2023-04-15T15:15:08;11.70;99.90
44886;DHT22;36669;51.428;21.162;2023-04-15T15:17:36;11.20;99.90
44886;DHT22;36669;51.428;21.162;2023-04-15T15:20:01;10.60;99.90
44886;DHT22;36669;51.428;21.162;2023-04-15T15:22:29;10.60;99.90
44886;DHT22;36669;51.428;21.162;2023-04-15T15:24:56;10.50;99.90
44886;DHT22;36669;51.428;21.162;2023-04-15T15:27:24;10.40;99.90
44886;DHT22;36669;51.428;21.162;2023-04-15T15:29:54;10.30;99.90
44886;DHT22;36669;51.428;21.162;2023-04-15T15:32:22;10.20;99.90
44886;DHT22;36669;51.428;21.162;2023-04-15T15:34:48;10.10;99.90